sensor_id;sensor_type;location;lat;lon;timestamp;pressure;altitude;pressure_sealevel;temperature;humidity
43420;BME280;29017;51.514;-0.178;2022-09-09T00:06:45;99806.22;;;17.64;100.00
43420;BME280;29017;51.514;-0.178;2022-09-09T00:11:48;99794.19;;;17.61;100.00
43420;BME280;29017;51.514;-0.178;2022-09-09T00:14:26;99791.53;;;17.61;100.00
43420;BME280;29017;51.514;-0.178;2022-09-09T00:20:12;99792.56;;;17.60;100.00
43420;BME280;29017;51.514;-0.178;2022-09-09T00:25:32;99787.44;;;17.59;100.00
43420;BME280;29017;51.514;-0.178;2022-09-09T00:30:39;99790.94;;;17.59;100.00
43420;BME280;29017;51.514;-0.178;2022-09-09T00:33:11;99788.47;;;17.58;100.00
43420;BME280;29017;51.514;-0.178;2022-09-09T00:35:47;99793.00;;;17.57;100.00
43420;BME280;29017;51.514;-0.178;2022-09-09T00:48:36;99779.28;;;17.60;100.00
43420;BME280;29017;51.514;-0.178;2022-09-09T00:51:15;99788.88;;;17.61;100.00
43420;BME280;29017;51.514;-0.178;2022-09-09T00:56:21;99792.91;;;17.64;100.00
43420;BME280;29017;51.514;-0.178;2022-09-09T00:59:04;99789.00;;;17.66;100.00
43420;BME280;29017;51.514;-0.178;2022-09-09T01:01:33;99782.41;;;17.69;100.00
43420;BME280;29017;51.514;-0.178;2022-09-09T01:04:08;99780.00;;;17.67;100.00
43420;BME280;29017;51.514;-0.178;2022-09-09T01:06:45;99770.38;;;17.66;100.00
43420;BME280;29017;51.514;-0.178;2022-09-09T01:17:02;99769.13;;;17.69;100.00
43420;BME280;29017;51.514;-0.178;2022-09-09T01:27:23;99778.13;;;17.68;100.00
43420;BME280;29017;51.514;-0.178;2022-09-09T01:29:52;99768.53;;;17.67;100.00
43420;BME280;29017;51.514;-0.178;2022-09-09T01:34:51;99764.25;;;17.66;100.00
43420;BME280;29017;51.514;-0.178;2022-09-09T01:37:20;99764.25;;;17.66;100.00
43420;BME280;29017;51.514;-0.178;2022-09-09T01:39:48;99763.91;;;17.62;100.00
43420;BME280;29017;51.514;-0.178;2022-09-09T01:42:16;99766.56;;;17.62;100.00
43420;BME280;29017;51.514;-0.178;2022-09-09T01:44:45;99761.81;;;17.64;100.00
43420;BME280;29017;51.514;-0.178;2022-09-09T01:47:14;99769.38;;;17.67;100.00
43420;BME280;29017;51.514;-0.178;2022-09-09T01:49:42;99754.44;;;17.66;100.00
43420;BME280;29017;51.514;-0.178;2022-09-09T01:52:09;99766.09;;;17.65;100.00
43420;BME280;29017;51.514;-0.178;2022-09-09T01:54:36;99764.25;;;17.66;100.00
43420;BME280;29017;51.514;-0.178;2022-09-09T02:04:39;99770.16;;;17.68;100.00
43420;BME280;29017;51.514;-0.178;2022-09-09T02:07:19;99768.16;;;17.63;100.00
43420;BME280;29017;51.514;-0.178;2022-09-09T02:09:54;99763.91;;;17.62;100.00
43420;BME280;29017;51.514;-0.178;2022-09-09T02:12:24;99764.69;;;17.63;100.00
43420;BME280;29017;51.514;-0.178;2022-09-09T02:14:57;99762.84;;;17.63;100.00
43420;BME280;29017;51.514;-0.178;2022-09-09T02:17:33;99761.00;;;17.64;100.00
43420;BME280;29017;51.514;-0.178;2022-09-09T02:20:08;99763.31;;;17.60;100.00
43420;BME280;29017;51.514;-0.178;2022-09-09T02:22:39;99761.47;;;17.61;100.00
43420;BME280;29017;51.514;-0.178;2022-09-09T02:25:09;99767.81;;;17.60;100.00
43420;BME280;29017;51.514;-0.178;2022-09-09T02:27:36;99772.09;;;17.61;100.00
43420;BME280;29017;51.514;-0.178;2022-09-09T02:30:04;99773.72;;;17.62;100.00
43420;BME280;29017;51.514;-0.178;2022-09-09T02:32:32;99767.34;;;17.63;100.00
43420;BME280;29017;51.514;-0.178;2022-09-09T02:37:33;99774.28;;;17.64;100.00
43420;BME280;29017;51.514;-0.178;2022-09-09T02:40:04;99772.44;;;17.64;100.00
43420;BME280;29017;51.514;-0.178;2022-09-09T02:42:34;99768.16;;;17.63;100.00
43420;BME280;29017;51.514;-0.178;2022-09-09T02:45:06;99772.44;;;17.64;100.00
43420;BME280;29017;51.514;-0.178;2022-09-09T02:47:35;99773.28;;;17.65;100.00
43420;BME280;29017;51.514;-0.178;2022-09-09T02:55:11;99781.03;;;17.66;100.00
43420;BME280;29017;51.514;-0.178;2022-09-09T02:57:35;99777.34;;;17.67;100.00
43420;BME280;29017;51.514;-0.178;2022-09-09T03:00:04;99768.75;;;17.65;100.00
43420;BME280;29017;51.514;-0.178;2022-09-09T03:02:32;99790.03;;;17.65;100.00
43420;BME280;29017;51.514;-0.178;2022-09-09T03:05:00;99777.78;;;17.64;100.00
43420;BME280;29017;51.514;-0.178;2022-09-09T03:07:27;99782.88;;;17.66;100.00
43420;BME280;29017;51.514;-0.178;2022-09-09T03:09:55;99783.31;;;17.63;100.00
43420;BME280;29017;51.514;-0.178;2022-09-09T03:12:23;99786.56;;;17.65;100.00
43420;BME280;29017;51.514;-0.178;2022-09-09T03:14:50;99793.94;;;17.63;100.00
43420;BME280;29017;51.514;-0.178;2022-09-09T03:17:18;99788.88;;;17.61;100.00
43420;BME280;29017;51.514;-0.178;2022-09-09T03:19:45;99788.06;;;17.61;100.00
43420;BME280;29017;51.514;-0.178;2022-09-09T03:22:12;99784.59;;;17.60;100.00
43420;BME280;29017;51.514;-0.178;2022-09-09T03:24:40;99787.44;;;17.59;100.00
43420;BME280;29017;51.514;-0.178;2022-09-09T03:27:06;99783.97;;;17.58;100.00
43420;BME280;29017;51.514;-0.178;2022-09-09T03:29:33;99786.88;;;17.57;100.00
43420;BME280;29017;51.514;-0.178;2022-09-09T03:32:01;99790.56;;;17.56;100.00
43420;BME280;29017;51.514;-0.178;2022-09-09T03:34:29;99792.19;;;17.57;100.00
43420;BME280;29017;51.514;-0.178;2022-09-09T03:36:56;99784.19;;;17.57;100.00
43420;BME280;29017;51.514;-0.178;2022-09-09T03:39:23;99793.59;;;17.59;100.00
43420;BME280;29017;51.514;-0.178;2022-09-09T03:41:52;99796.03;;;17.61;100.00
43420;BME280;29017;51.514;-0.178;2022-09-09T03:44:19;99799.72;;;17.60;100.00
43420;BME280;29017;51.514;-0.178;2022-09-09T03:46:46;99801.56;;;17.59;100.00
43420;BME280;29017;51.514;-0.178;2022-09-09T03:49:14;99799.91;;;17.58;100.00
43420;BME280;29017;51.514;-0.178;2022-09-09T03:51:42;99809.19;;;17.56;100.00
43420;BME280;29017;51.514;-0.178;2022-09-09T03:54:09;99809.38;;;17.54;100.00
43420;BME280;29017;51.514;-0.178;2022-09-09T03:56:37;99808.34;;;17.55;100.00
43420;BME280;29017;51.514;-0.178;2022-09-09T03:59:04;99808.16;;;17.57;100.00
43420;BME280;29017;51.514;-0.178;2022-09-09T04:04:33;99811.03;;;17.55;100.00
43420;BME280;29017;51.514;-0.178;2022-09-09T04:07:01;99820.84;;;17.54;100.00
43420;BME280;29017;51.514;-0.178;2022-09-09T04:09:27;99817.38;;;17.54;100.00
43420;BME280;29017;51.514;-0.178;2022-09-09T04:11:54;99820.25;;;17.52;100.00
43420;BME280;29017;51.514;-0.178;2022-09-09T04:14:21;99832.75;;;17.52;100.00
43420;BME280;29017;51.514;-0.178;2022-09-09T04:17:03;99828.47;;;17.51;100.00
43420;BME280;29017;51.514;-0.178;2022-09-09T04:19:33;99823.97;;;17.51;100.00
43420;BME280;29017;51.514;-0.178;2022-09-09T04:22:00;99824.19;;;17.50;100.00
43420;BME280;29017;51.514;-0.178;2022-09-09T04:24:27;99827.06;;;17.48;100.00
43420;BME280;29017;51.514;-0.178;2022-09-09T04:26:55;99828.69;;;17.49;100.00
43420;BME280;29017;51.514;-0.178;2022-09-09T04:29:24;99823.34;;;17.49;100.00
43420;BME280;29017;51.514;-0.178;2022-09-09T04:31:52;99830.31;;;17.50;100.00
43420;BME280;29017;51.514;-0.178;2022-09-09T04:34:20;99833.78;;;17.51;100.00
43420;BME280;29017;51.514;-0.178;2022-09-09T04:36:48;99834.59;;;17.51;100.00
43420;BME280;29017;51.514;-0.178;2022-09-09T04:39:15;99836.44;;;17.51;100.00
43420;BME280;29017;51.514;-0.178;2022-09-09T04:41:42;99839.09;;;17.51;100.00
43420;BME280;29017;51.514;-0.178;2022-09-09T04:44:09;99842.59;;;17.51;100.00
43420;BME280;29017;51.514;-0.178;2022-09-09T04:46:36;99845.81;;;17.53;100.00
43420;BME280;29017;51.514;-0.178;2022-09-09T04:49:04;99846.63;;;17.54;100.00
43420;BME280;29017;51.514;-0.178;2022-09-09T04:51:32;99846.63;;;17.54;100.00
43420;BME280;29017;51.514;-0.178;2022-09-09T04:53:59;99841.53;;;17.52;100.00
43420;BME280;29017;51.514;-0.178;2022-09-09T04:56:26;99850.09;;;17.54;100.00
43420;BME280;29017;51.514;-0.178;2022-09-09T04:58:55;99855.63;;;17.53;100.00
43420;BME280;29017;51.514;-0.178;2022-09-09T05:01:22;99847.91;;;17.51;100.00
43420;BME280;29017;51.514;-0.178;2022-09-09T05:03:51;99851.13;;;17.53;100.00
43420;BME280;29017;51.514;-0.178;2022-09-09T05:06:21;99858.09;;;17.54;100.00
43420;BME280;29017;51.514;-0.178;2022-09-09T05:08:48;99859.72;;;17.56;100.00
43420;BME280;29017;51.514;-0.178;2022-09-09T05:11:19;99867.69;;;17.56;100.00
43420;BME280;29017;51.514;-0.178;2022-09-09T05:13:47;99872.22;;;17.55;100.00
43420;BME280;29017;51.514;-0.178;2022-09-09T05:16:16;99873.03;;;17.56;100.00
43420;BME280;29017;51.514;-0.178;2022-09-09T05:18:44;99873.22;;;17.54;100.00
43420;BME280;29017;51.514;-0.178;2022-09-09T05:21:14;99875.91;;;17.54;100.00
43420;BME280;29017;51.514;-0.178;2022-09-09T05:23:42;99876.50;;;17.56;100.00
43420;BME280;29017;51.514;-0.178;2022-09-09T05:26:13;99886.53;;;17.54;100.00
43420;BME280;29017;51.514;-0.178;2022-09-09T05:31:12;99881.22;;;17.54;100.00
43420;BME280;29017;51.514;-0.178;2022-09-09T05:33:41;99891.28;;;17.52;100.00
43420;BME280;29017;51.514;-0.178;2022-09-09T05:36:12;99897.38;;;17.52;100.00
43420;BME280;29017;51.514;-0.178;2022-09-09T05:38:40;99894.97;;;17.51;100.00
43420;BME280;29017;51.514;-0.178;2022-09-09T05:41:09;99896.00;;;17.50;100.00
43420;BME280;29017;51.514;-0.178;2022-09-09T05:43:38;99899.47;;;17.50;100.00
43420;BME280;29017;51.514;-0.178;2022-09-09T05:46:08;99901.53;;;17.48;100.00
43420;BME280;29017;51.514;-0.178;2022-09-09T05:48:35;99910.31;;;17.49;100.00
43420;BME280;29017;51.514;-0.178;2022-09-09T05:51:05;99903.16;;;17.49;100.00
43420;BME280;29017;51.514;-0.178;2022-09-09T05:53:35;99917.06;;;17.51;100.00
43420;BME280;29017;51.514;-0.178;2022-09-09T05:56:05;99910.47;;;17.54;100.00
43420;BME280;29017;51.514;-0.178;2022-09-09T05:58:34;99920.91;;;17.56;100.00
43420;BME280;29017;51.514;-0.178;2022-09-09T06:01:06;99920.31;;;17.53;100.00
43420;BME280;29017;51.514;-0.178;2022-09-09T06:03:35;99926.66;;;17.52;100.00
43420;BME280;29017;51.514;-0.178;2022-09-09T06:06:05;99939.16;;;17.52;100.00
43420;BME280;29017;51.514;-0.178;2022-09-09T06:11:06;99938.34;;;17.51;100.00
43420;BME280;29017;51.514;-0.178;2022-09-09T06:13:35;99930.38;;;17.51;100.00
43420;BME280;29017;51.514;-0.178;2022-09-09T06:16:03;99935.44;;;17.53;100.00
43420;BME280;29017;51.514;-0.178;2022-09-09T06:18:32;99944.25;;;17.53;100.00
43420;BME280;29017;51.514;-0.178;2022-09-09T06:21:02;99942.63;;;17.52;100.00
43420;BME280;29017;51.514;-0.178;2022-09-09T06:23:31;99945.28;;;17.52;100.00
43420;BME280;29017;51.514;-0.178;2022-09-09T06:28:33;99952.22;;;17.53;100.00
43420;BME280;29017;51.514;-0.178;2022-09-09T06:31:03;99950.38;;;17.54;100.00
43420;BME280;29017;51.514;-0.178;2022-09-09T06:33:37;99952.22;;;17.53;100.00
43420;BME280;29017;51.514;-0.178;2022-09-09T06:36:12;99950.84;;;17.51;100.00
43420;BME280;29017;51.514;-0.178;2022-09-09T06:38:42;99949.81;;;17.52;100.00
43420;BME280;29017;51.514;-0.178;2022-09-09T06:41:11;99952.69;;;17.50;100.00
43420;BME280;29017;51.514;-0.178;2022-09-09T06:43:39;99952.06;;;17.48;100.00
43420;BME280;29017;51.514;-0.178;2022-09-09T06:48:39;99953.72;;;17.49;100.00
43420;BME280;29017;51.514;-0.178;2022-09-09T06:51:09;99963.31;;;17.50;100.00
43420;BME280;29017;51.514;-0.178;2022-09-09T06:53:39;99955.91;;;17.52;100.00
43420;BME280;29017;51.514;-0.178;2022-09-09T07:01:13;99971.88;;;17.52;100.00
43420;BME280;29017;51.514;-0.178;2022-09-09T07:03:44;99976.16;;;17.53;100.00
43420;BME280;29017;51.514;-0.178;2022-09-09T07:06:15;99979.66;;;17.54;100.00
43420;BME280;29017;51.514;-0.178;2022-09-09T07:08:47;99974.13;;;17.56;100.00
43420;BME280;29017;51.514;-0.178;2022-09-09T07:11:15;99981.06;;;17.57;100.00
43420;BME280;29017;51.514;-0.178;2022-09-09T07:13:42;99986.59;;;17.55;100.00
43420;BME280;29017;51.514;-0.178;2022-09-09T07:16:12;99986.59;;;17.55;100.00
43420;BME280;29017;51.514;-0.178;2022-09-09T07:18:40;99996.44;;;17.54;100.00
43420;BME280;29017;51.514;-0.178;2022-09-09T07:21:08;100001.97;;;17.53;99.46
43420;BME280;29017;51.514;-0.178;2022-09-09T07:23:36;100009.34;;;17.51;99.11
43420;BME280;29017;51.514;-0.178;2022-09-09T07:26:08;100003.44;;;17.49;98.34
43420;BME280;29017;51.514;-0.178;2022-09-09T07:28:37;100010.59;;;17.48;98.45
43420;BME280;29017;51.514;-0.178;2022-09-09T07:31:05;100018.38;;;17.50;98.55
43420;BME280;29017;51.514;-0.178;2022-09-09T07:33:34;100012.22;;;17.49;98.13
43420;BME280;29017;51.514;-0.178;2022-09-09T07:36:04;100018.97;;;17.52;98.27
43420;BME280;29017;51.514;-0.178;2022-09-09T07:41:08;100022.41;;;17.52;97.88
43420;BME280;29017;51.514;-0.178;2022-09-09T07:43:40;100037.34;;;17.53;97.60
43420;BME280;29017;51.514;-0.178;2022-09-09T07:46:09;100033.31;;;17.51;97.08
43420;BME280;29017;51.514;-0.178;2022-09-09T07:48:36;100040.03;;;17.53;97.52
43420;BME280;29017;51.514;-0.178;2022-09-09T07:51:09;100044.31;;;17.54;97.37
43420;BME280;29017;51.514;-0.178;2022-09-09T07:53:39;100040.41;;;17.57;97.71
43420;BME280;29017;51.514;-0.178;2022-09-09T07:56:11;100043.47;;;17.61;97.87
43420;BME280;29017;51.514;-0.178;2022-09-09T07:58:40;100051.25;;;17.62;97.72
43420;BME280;29017;51.514;-0.178;2022-09-09T08:01:09;100049.81;;;17.60;96.86
43420;BME280;29017;51.514;-0.178;2022-09-09T08:03:36;100050.81;;;17.59;96.12
43420;BME280;29017;51.514;-0.178;2022-09-09T08:06:06;100050.66;;;17.60;95.95
43420;BME280;29017;51.514;-0.178;2022-09-09T08:08:34;100049.63;;;17.61;95.91
43420;BME280;29017;51.514;-0.178;2022-09-09T08:11:03;100052.03;;;17.63;95.76
43420;BME280;29017;51.514;-0.178;2022-09-09T08:13:31;100063.50;;;17.63;95.39
43420;BME280;29017;51.514;-0.178;2022-09-09T08:16:03;100058.34;;;17.68;95.88
43420;BME280;29017;51.514;-0.178;2022-09-09T08:18:30;100063.47;;;17.70;95.70
43420;BME280;29017;51.514;-0.178;2022-09-09T08:20:57;100064.63;;;17.74;96.36
43420;BME280;29017;51.514;-0.178;2022-09-09T08:23:24;100069.75;;;17.75;96.43
43420;BME280;29017;51.514;-0.178;2022-09-09T08:25:52;100082.25;;;17.75;96.14
43420;BME280;29017;51.514;-0.178;2022-09-09T08:28:20;100079.38;;;17.76;96.16
43420;BME280;29017;51.514;-0.178;2022-09-09T08:30:47;100089.00;;;17.77;96.10
43420;BME280;29017;51.514;-0.178;2022-09-09T08:33:15;100092.44;;;17.78;95.63
43420;BME280;29017;51.514;-0.178;2022-09-09T08:35:50;100099.63;;;17.77;94.30
43420;BME280;29017;51.514;-0.178;2022-09-09T08:38:19;100108.66;;;17.76;94.84
43420;BME280;29017;51.514;-0.178;2022-09-09T08:40:49;100107.22;;;17.74;95.20
43420;BME280;29017;51.514;-0.178;2022-09-09T08:43:20;100103.38;;;17.70;94.86
43420;BME280;29017;51.514;-0.178;2022-09-09T08:45:50;100111.97;;;17.72;94.91
43420;BME280;29017;51.514;-0.178;2022-09-09T08:51:03;100115.00;;;17.75;95.14
43420;BME280;29017;51.514;-0.178;2022-09-09T08:53:38;100114.78;;;17.77;95.34
43420;BME280;29017;51.514;-0.178;2022-09-09T08:56:13;100118.28;;;17.77;95.41
43420;BME280;29017;51.514;-0.178;2022-09-09T09:01:24;100131.94;;;17.81;95.41
43420;BME280;29017;51.514;-0.178;2022-09-09T09:16:41;100147.28;;;17.85;96.16
43420;BME280;29017;51.514;-0.178;2022-09-09T09:19:14;100149.72;;;17.87;96.69
43420;BME280;29017;51.514;-0.178;2022-09-09T09:21:44;100153.19;;;17.87;96.11
43420;BME280;29017;51.514;-0.178;2022-09-09T09:24:19;100158.09;;;17.90;95.71
43420;BME280;29017;51.514;-0.178;2022-09-09T09:26:47;100152.91;;;17.95;95.77
43420;BME280;29017;51.514;-0.178;2022-09-09T09:29:17;100158.63;;;17.99;95.68
43420;BME280;29017;51.514;-0.178;2022-09-09T09:31:48;100164.75;;;18.00;94.91
43420;BME280;29017;51.514;-0.178;2022-09-09T09:34:18;100165.38;;;18.02;94.35
43420;BME280;29017;51.514;-0.178;2022-09-09T09:36:53;100174.75;;;18.04;93.98
43420;BME280;29017;51.514;-0.178;2022-09-09T09:39:25;100173.28;;;18.08;94.32
43420;BME280;29017;51.514;-0.178;2022-09-09T09:42:14;100181.06;;;18.10;94.43
43420;BME280;29017;51.514;-0.178;2022-09-09T09:44:47;100178.41;;;18.10;93.91
43420;BME280;29017;51.514;-0.178;2022-09-09T09:47:16;100181.66;;;18.12;94.45
43420;BME280;29017;51.514;-0.178;2022-09-09T09:52:22;100184.28;;;18.18;94.22
43420;BME280;29017;51.514;-0.178;2022-09-09T09:54:51;100183.00;;;18.21;94.12
43420;BME280;29017;51.514;-0.178;2022-09-09T09:57:18;100194.28;;;18.23;93.98
43420;BME280;29017;51.514;-0.178;2022-09-09T10:00:01;100195.88;;;18.24;93.82
43420;BME280;29017;51.514;-0.178;2022-09-09T10:02:37;100192.44;;;18.23;93.19
43420;BME280;29017;51.514;-0.178;2022-09-09T10:05:14;100194.84;;;18.25;92.95
43420;BME280;29017;51.514;-0.178;2022-09-09T10:07:42;100201.81;;;18.26;93.80
43420;BME280;29017;51.514;-0.178;2022-09-09T10:10:19;100203.25;;;18.28;94.22
43420;BME280;29017;51.514;-0.178;2022-09-09T10:18:00;100204.19;;;18.34;95.79
43420;BME280;29017;51.514;-0.178;2022-09-09T10:20:37;100201.53;;;18.34;95.93
43420;BME280;29017;51.514;-0.178;2022-09-09T10:25:43;100202.13;;;18.36;95.42
43420;BME280;29017;51.514;-0.178;2022-09-09T10:33:21;100221.41;;;18.38;95.18
43420;BME280;29017;51.514;-0.178;2022-09-09T10:38:30;100218.72;;;18.38;96.70
43420;BME280;29017;51.514;-0.178;2022-09-09T10:51:24;100232.72;;;18.33;97.99
43420;BME280;29017;51.514;-0.178;2022-09-09T10:56:26;100224.94;;;18.32;98.43
43420;BME280;29017;51.514;-0.178;2022-09-09T10:58:57;100227.97;;;18.35;98.43
43420;BME280;29017;51.514;-0.178;2022-09-09T11:01:32;100222.63;;;18.35;98.44
43420;BME280;29017;51.514;-0.178;2022-09-09T11:06:39;100230.56;;;18.42;97.80
43420;BME280;29017;51.514;-0.178;2022-09-09T11:09:16;100222.13;;;18.45;98.03
43420;BME280;29017;51.514;-0.178;2022-09-09T11:16:56;100229.38;;;18.63;97.22
43420;BME280;29017;51.514;-0.178;2022-09-09T11:19:30;100232.63;;;18.65;96.54
43420;BME280;29017;51.514;-0.178;2022-09-09T11:22:04;100234.06;;;18.67;95.81
43420;BME280;29017;51.514;-0.178;2022-09-09T11:24:39;100239.75;;;18.71;95.58
43420;BME280;29017;51.514;-0.178;2022-09-09T11:40:41;100244.31;;;18.89;93.26
43420;BME280;29017;51.514;-0.178;2022-09-09T11:43:15;100231.94;;;18.94;92.87
43420;BME280;29017;51.514;-0.178;2022-09-09T11:45:51;100238.34;;;19.05;93.74
43420;BME280;29017;51.514;-0.178;2022-09-09T11:48:34;100240.13;;;19.11;92.45
43420;BME280;29017;51.514;-0.178;2022-09-09T11:51:10;100249.31;;;19.15;92.05
43420;BME280;29017;51.514;-0.178;2022-09-09T11:53:50;100250.13;;;19.15;91.04
43420;BME280;29017;51.514;-0.178;2022-09-09T11:56:30;100243.56;;;19.18;90.50
43420;BME280;29017;51.514;-0.178;2022-09-09T11:59:04;100248.00;;;19.24;90.19
43420;BME280;29017;51.514;-0.178;2022-09-09T12:01:36;100246.31;;;19.30;89.49
43420;BME280;29017;51.514;-0.178;2022-09-09T12:04:25;100248.44;;;19.39;90.52
43420;BME280;29017;51.514;-0.178;2022-09-09T12:06:51;100246.50;;;19.46;90.09
43420;BME280;29017;51.514;-0.178;2022-09-09T12:17:26;100245.19;;;19.55;86.67
43420;BME280;29017;51.514;-0.178;2022-09-09T12:25:30;100250.19;;;19.63;89.59
43420;BME280;29017;51.514;-0.178;2022-09-09T12:28:18;100242.78;;;19.66;89.28
43420;BME280;29017;51.514;-0.178;2022-09-09T12:30:58;100240.69;;;19.68;87.96
43420;BME280;29017;51.514;-0.178;2022-09-09T12:33:37;100247.19;;;19.72;87.33
43420;BME280;29017;51.514;-0.178;2022-09-09T12:36:15;100247.09;;;19.78;87.52
43420;BME280;29017;51.514;-0.178;2022-09-09T12:38:45;100243.97;;;19.81;86.91
43420;BME280;29017;51.514;-0.178;2022-09-09T12:41:21;100243.06;;;19.87;86.38
43420;BME280;29017;51.514;-0.178;2022-09-09T12:43:50;100242.38;;;19.92;83.35
43420;BME280;29017;51.514;-0.178;2022-09-09T12:48:57;100248.44;;;19.99;83.11
43420;BME280;29017;51.514;-0.178;2022-09-09T12:54:14;100254.38;;;20.01;82.38
43420;BME280;29017;51.514;-0.178;2022-09-09T12:56:45;100249.03;;;20.01;83.42
43420;BME280;29017;51.514;-0.178;2022-09-09T12:59:25;100256.47;;;19.99;82.01
43420;BME280;29017;51.514;-0.178;2022-09-09T13:01:56;100251.03;;;20.05;83.97
43420;BME280;29017;51.514;-0.178;2022-09-09T13:04:24;100263.69;;;20.10;83.82
43420;BME280;29017;51.514;-0.178;2022-09-09T13:06:51;100257.75;;;20.08;80.13
43420;BME280;29017;51.514;-0.178;2022-09-09T13:09:21;100258.09;;;20.12;80.06
43420;BME280;29017;51.514;-0.178;2022-09-09T13:11:52;100251.50;;;20.14;79.23
43420;BME280;29017;51.514;-0.178;2022-09-09T13:14:29;100244.66;;;20.18;78.35
43420;BME280;29017;51.514;-0.178;2022-09-09T13:17:00;100256.88;;;20.26;78.45
43420;BME280;29017;51.514;-0.178;2022-09-09T13:19:33;100244.47;;;20.31;80.10
43420;BME280;29017;51.514;-0.178;2022-09-09T13:22:22;100250.41;;;20.33;79.48
43420;BME280;29017;51.514;-0.178;2022-09-09T13:25:25;100256.34;;;20.35;78.92
43420;BME280;29017;51.514;-0.178;2022-09-09T13:28:20;100259.13;;;20.40;78.41
43420;BME280;29017;51.514;-0.178;2022-09-09T13:31:04;100264.00;;;20.43;77.12
43420;BME280;29017;51.514;-0.178;2022-09-09T13:33:35;100259.59;;;20.49;76.76
43420;BME280;29017;51.514;-0.178;2022-09-09T13:36:09;100267.50;;;20.56;77.50
43420;BME280;29017;51.514;-0.178;2022-09-09T13:41:21;100260.31;;;20.56;76.52
43420;BME280;29017;51.514;-0.178;2022-09-09T13:43:49;100258.19;;;20.58;75.38
43420;BME280;29017;51.514;-0.178;2022-09-09T13:49:03;100258.69;;;20.67;77.79
43420;BME280;29017;51.514;-0.178;2022-09-09T13:51:47;100264.59;;;20.69;76.56
43420;BME280;29017;51.514;-0.178;2022-09-09T13:54:18;100267.50;;;20.67;76.11
43420;BME280;29017;51.514;-0.178;2022-09-09T13:56:46;100269.13;;;20.68;77.39
43420;BME280;29017;51.514;-0.178;2022-09-09T13:59:17;100270.16;;;20.67;78.88
43420;BME280;29017;51.514;-0.178;2022-09-09T14:01:47;100266.34;;;20.63;77.49
43420;BME280;29017;51.514;-0.178;2022-09-09T14:04:15;100274.00;;;20.60;75.80
43420;BME280;29017;51.514;-0.178;2022-09-09T14:06:43;100273.19;;;20.59;76.56
43420;BME280;29017;51.514;-0.178;2022-09-09T14:09:13;100266.22;;;20.58;74.48
43420;BME280;29017;51.514;-0.178;2022-09-09T14:11:42;100282.03;;;20.60;74.86
43420;BME280;29017;51.514;-0.178;2022-09-09T14:14:09;100280.19;;;20.60;75.51
43420;BME280;29017;51.514;-0.178;2022-09-09T14:16:36;100289.03;;;20.61;77.33
43420;BME280;29017;51.514;-0.178;2022-09-09T14:19:05;100283.41;;;20.62;78.56
43420;BME280;29017;51.514;-0.178;2022-09-09T14:21:31;100289.25;;;20.59;77.33
43420;BME280;29017;51.514;-0.178;2022-09-09T14:23:59;100285.19;;;20.57;77.54
43420;BME280;29017;51.514;-0.178;2022-09-09T14:26:26;100275.63;;;20.49;74.90
43420;BME280;29017;51.514;-0.178;2022-09-09T14:28:52;100286.53;;;20.47;75.33
43420;BME280;29017;51.514;-0.178;2022-09-09T14:31:22;100283.06;;;20.47;76.06
43420;BME280;29017;51.514;-0.178;2022-09-09T14:33:49;100277.97;;;20.45;76.66
43420;BME280;29017;51.514;-0.178;2022-09-09T14:36:17;100282.50;;;20.45;77.80
43420;BME280;29017;51.514;-0.178;2022-09-09T14:38:44;100279.22;;;20.43;77.51
43420;BME280;29017;51.514;-0.178;2022-09-09T14:41:13;100276.00;;;20.41;77.63
43420;BME280;29017;51.514;-0.178;2022-09-09T14:43:44;100281.91;;;20.43;79.08
43420;BME280;29017;51.514;-0.178;2022-09-09T14:46:13;100277.59;;;20.42;79.73
43420;BME280;29017;51.514;-0.178;2022-09-09T14:48:41;100287.94;;;20.38;78.77
43420;BME280;29017;51.514;-0.178;2022-09-09T14:51:26;100275.63;;;20.37;78.08
43420;BME280;29017;51.514;-0.178;2022-09-09T14:53:58;100282.81;;;20.37;78.24
43420;BME280;29017;51.514;-0.178;2022-09-09T14:56:28;100280.75;;;20.39;79.21
43420;BME280;29017;51.514;-0.178;2022-09-09T14:58:58;100282.03;;;20.36;77.85
43420;BME280;29017;51.514;-0.178;2022-09-09T15:01:28;100284.09;;;20.34;76.67
43420;BME280;29017;51.514;-0.178;2022-09-09T15:06:27;100288.63;;;20.34;77.89
43420;BME280;29017;51.514;-0.178;2022-09-09T15:08:56;100295.84;;;20.33;77.95
43420;BME280;29017;51.514;-0.178;2022-09-09T15:11:27;100296.06;;;20.32;77.99
43420;BME280;29017;51.514;-0.178;2022-09-09T15:13:54;100291.78;;;20.31;77.46
43420;BME280;29017;51.514;-0.178;2022-09-09T15:16:23;100307.81;;;20.31;77.88
43420;BME280;29017;51.514;-0.178;2022-09-09T15:18:52;100309.41;;;20.32;79.18
43420;BME280;29017;51.514;-0.178;2022-09-09T15:21:22;100305.94;;;20.31;79.57
43420;BME280;29017;51.514;-0.178;2022-09-09T15:23:49;100306.84;;;20.25;79.25
43420;BME280;29017;51.514;-0.178;2022-09-09T15:26:18;100303.78;;;20.22;80.63
43420;BME280;29017;51.514;-0.178;2022-09-09T15:28:45;100306.56;;;20.15;81.70
43420;BME280;29017;51.514;-0.178;2022-09-09T15:31:24;100303.09;;;20.15;80.55
43420;BME280;29017;51.514;-0.178;2022-09-09T15:33:54;100314.22;;;20.12;80.68
43420;BME280;29017;51.514;-0.178;2022-09-09T15:36:32;100314.91;;;20.07;80.93
43420;BME280;29017;51.514;-0.178;2022-09-09T15:39:00;100326.66;;;20.06;82.38
43420;BME280;29017;51.514;-0.178;2022-09-09T15:41:29;100335.91;;;20.03;83.11
43420;BME280;29017;51.514;-0.178;2022-09-09T15:43:58;100339.06;;;20.00;83.13
43420;BME280;29017;51.514;-0.178;2022-09-09T15:46:32;100331.47;;;19.97;83.27
43420;BME280;29017;51.514;-0.178;2022-09-09T15:49:21;100333.56;;;19.95;84.72
43420;BME280;29017;51.514;-0.178;2022-09-09T15:51:57;100336.69;;;19.92;84.90
43420;BME280;29017;51.514;-0.178;2022-09-09T15:54:25;100329.94;;;19.90;85.08
43420;BME280;29017;51.514;-0.178;2022-09-09T15:56:55;100325.63;;;19.89;85.79
43420;BME280;29017;51.514;-0.178;2022-09-09T15:59:23;100324.81;;;19.88;86.73